Terminal Aerodrome Forecast
Issued by NWS

Home | Current Version | Previous Version | Graphics & Text | Print | Product List | Glossary On
Versions: 1 2 3 4 5 6 7 8 9 10 11 12 13 14 15 16 17 18 19 20 21 22 23 24 25 26 27 28 29 30 31 32 33 34
266
FTUS43 KGRB 281156 AAA
TAFRHI
TAF AMD
KRHI 281156Z 2812/2912 00000KT 6SM BR SCT005 SCT100
      TEMPO 2812/2814 1/2SM FG BKN005
     FM281400 03005KT P6SM FEW100 SCT200
     FM290600 07004KT P6SM SCT100 BKN200=

USA.gov is the U.S. government's official web portal to all federal, state and local government web resources and services.